Terminal Aerodrome Forecast
Issued by NWS

Home | Current Version | Previous Version | Text Only | Print | Product List | Glossary On
Versions: 1 2 3 4 5 6 7 8 9 10 11 12 13 14 15 16 17 18 19
353
FTUS42 KMLB 161406 AAB
TAFSFB
TAF AMD
KSFB 161406Z 1614/1712 01006KT P6SM FEW030 BKN045
     FM161700 03007KT P6SM FEW045 SCT090
     FM170000 05004KT P6SM FEW040 BKN250=

USA.gov is the U.S. government's official web portal to all federal, state and local government web resources and services.